Accueil
METAR-TAF:

METAR-TAF

Aéroports :

Ranong, Thaïlande

latitude: 09-59N, longitude: 098-37E, altitude: 7 m

Observation

Le bulletin a été fait il y a 7 heures et 22 minutes, à 13:00 UTC
Vent 6 kt de sud-ouest
Température 27°C
Humidité 89%
Pression 1009 hPa
Visibilité 10 km ou plus
Quelques nuages à une hauteur de 2000 ft

METAR: VTSR 071300Z 23006KT 9999 FEW020 27/25 Q1009

Heure: 03:22 (20:22 UTC)

Prévision

Le bulletin a été fait il y a 3 heures et 22 minutes, à 17:00 UTC
Prévision valable du 07 à 18 UTC au 08 à 18 UTC
Vent kt de nord
Visibilité 10 km ou plus
Quelques nuages à une hauteur de 2000 ft
Evoluant progressivement
du 08 à 00 UTC au 08 à 02 UTC
Vent 6 kt de est

TAF: VTSR 071700Z 0718/0818 00000KT 9999 FEW020 BECMG 0800/0802 10006KT

Observations et prévisions météorologiques de plus de 4000 aéroports (messages METAR et TAF).

Les stations disponibles sont représentées par des disques jaunes et rouges sur la carte.

Passer la souris dessus pour voir le nom de la station.

Cliquer dessus pour voir les observations et prévisions météorologiques.

Pour changer de carte: cliquez sur les boutons verts avec une croix noire pour zoomer, sur le bouton vert avec un tiret pour effectuer un zoom arrière, ou sur les flèches vertes pour les cartes adjacentes.


METAR-TAF: